createdAt,value
2023-03-05T00:01:22.804Z,0.30
2023-03-05T00:03:52.231Z,0.20
2023-03-05T00:06:20.383Z,0.20
2023-03-05T00:08:49.794Z,0.10
2023-03-05T00:11:17.557Z,-0.10
2023-03-05T00:13:45.426Z,-0.10
2023-03-05T00:16:15.492Z,-0.10
2023-03-05T00:18:43.310Z,-0.10
2023-03-05T00:21:20.322Z,-0.10
2023-03-05T00:23:50.647Z,-0.20
2023-03-05T00:26:18.759Z,-0.20
2023-03-05T00:28:49.818Z,-0.10
2023-03-05T00:31:18.132Z,-0.10
2023-03-05T00:33:46.219Z,0.00
2023-03-05T00:36:14.023Z,0.00
2023-03-05T00:38:41.809Z,-0.10
2023-03-05T00:41:11.147Z,0.00
2023-03-05T00:43:38.927Z,0.00
2023-03-05T00:46:06.819Z,0.00
2023-03-05T00:48:34.624Z,-0.20
2023-03-05T00:51:02.380Z,-0.10
2023-03-05T00:53:30.182Z,-0.20
2023-03-05T00:55:58.002Z,-0.30
2023-03-05T00:58:27.313Z,-0.40
2023-03-05T01:00:59.121Z,-0.30
2023-03-05T01:03:26.990Z,-0.50
2023-03-05T01:05:54.792Z,-0.50
2023-03-05T01:08:22.557Z,-0.40
2023-03-05T01:10:50.354Z,-0.40
2023-03-05T01:13:18.189Z,-0.30
2023-03-05T01:15:48.678Z,-0.20
2023-03-05T01:18:16.593Z,-0.30
2023-03-05T01:20:44.658Z,-0.40
2023-03-05T01:23:12.535Z,-0.30
2023-03-05T01:25:40.785Z,-0.30
2023-03-05T01:28:08.686Z,-0.40
2023-03-05T01:30:36.682Z,-0.40
2023-03-05T01:33:05.842Z,-0.50
2023-03-05T01:35:33.804Z,-0.40
2023-03-05T01:38:01.649Z,-0.40
2023-03-05T01:40:31.901Z,-0.40
2023-03-05T01:43:02.397Z,-0.30
2023-03-05T01:45:32.676Z,-0.20
2023-03-05T01:48:00.500Z,-0.40
2023-03-05T01:50:29.759Z,-0.50
2023-03-05T01:53:02.389Z,-0.40
2023-03-05T01:55:32.801Z,-0.40
2023-03-05T01:58:04.261Z,-0.50
2023-03-05T02:00:36.252Z,-0.50
2023-03-05T02:03:06.993Z,-0.50
2023-03-05T02:05:38.364Z,-0.40
2023-03-05T02:08:08.464Z,-0.40
2023-03-05T02:10:38.619Z,-0.50
2023-03-05T02:13:10.564Z,-0.50
2023-03-05T02:15:39.385Z,-0.40
2023-03-05T02:18:07.939Z,-0.40
2023-03-05T02:20:47.153Z,-0.50
2023-03-05T02:23:17.653Z,-0.60
2023-03-05T02:25:45.610Z,-0.70
2023-03-05T02:28:17.227Z,-0.60
2023-03-05T02:30:45.232Z,-0.60
2023-03-05T02:33:14.979Z,-0.70
2023-03-05T02:35:43.601Z,-0.60
2023-03-05T02:38:11.440Z,-0.70
2023-03-05T02:40:40.907Z,-0.60
2023-03-05T02:43:09.348Z,-0.70
2023-03-05T02:45:37.400Z,-0.80
2023-03-05T02:48:05.476Z,-0.70
2023-03-05T02:50:33.960Z,-0.60
2023-03-05T02:53:01.760Z,-0.70
2023-03-05T02:55:29.516Z,-0.70
2023-03-05T02:57:58.625Z,-0.40
2023-03-05T03:00:26.986Z,-0.50
2023-03-05T03:02:54.797Z,-0.60
2023-03-05T03:05:22.964Z,-0.40
2023-03-05T03:07:51.032Z,-0.40
2023-03-05T03:10:18.985Z,-0.50
2023-03-05T03:12:46.887Z,-0.50
2023-03-05T03:15:17.933Z,-0.60
2023-03-05T03:17:45.908Z,-0.50
2023-03-05T03:20:17.071Z,-0.50
2023-03-05T03:22:46.220Z,-0.60
2023-03-05T03:25:16.050Z,-0.60
2023-03-05T03:27:43.853Z,-0.70
2023-03-05T03:30:13.004Z,-0.80
2023-03-05T03:32:42.416Z,-0.80
2023-03-05T03:35:11.438Z,-0.90
2023-03-05T03:37:39.369Z,-0.90
2023-03-05T03:40:08.635Z,-0.90
2023-03-05T03:42:36.463Z,-0.80
2023-03-05T03:45:04.791Z,-0.90
2023-03-05T03:47:32.651Z,-1.00
2023-03-05T03:50:02.002Z,-1.00
2023-03-05T03:52:29.807Z,-0.90
2023-03-05T03:55:01.526Z,-0.90
2023-03-05T03:57:30.974Z,-0.90
2023-03-05T03:59:58.733Z,-1.00
2023-03-05T04:02:27.318Z,-0.90
2023-03-05T04:04:55.154Z,-0.90
2023-03-05T04:07:24.331Z,-0.80
2023-03-05T04:09:52.412Z,-0.80
2023-03-05T04:12:20.234Z,-0.90
2023-03-05T04:14:49.116Z,-0.80
2023-03-05T04:17:17.663Z,-0.70
2023-03-05T04:19:45.524Z,-0.70
2023-03-05T04:22:13.489Z,-0.60
2023-03-05T04:24:43.000Z,-0.50
2023-03-05T04:27:11.897Z,-0.40
2023-03-05T04:29:39.740Z,-0.30
2023-03-05T04:32:08.034Z,-0.40
2023-03-05T04:34:37.696Z,-0.30
2023-03-05T04:37:05.643Z,-0.40
2023-03-05T04:39:33.420Z,-0.30
2023-03-05T04:42:02.529Z,-0.20
2023-03-05T04:44:30.315Z,-0.20
2023-03-05T04:46:58.095Z,-0.20
2023-03-05T04:49:25.985Z,-0.30
2023-03-05T04:51:53.892Z,-0.40
2023-03-05T04:54:22.356Z,-0.40
2023-03-05T04:56:50.146Z,-0.50
2023-03-05T04:59:19.228Z,-0.30
2023-03-05T05:01:47.119Z,-0.10
2023-03-05T05:04:14.987Z,-0.10
2023-03-05T05:06:42.787Z,0.00
2023-03-05T05:09:10.632Z,0.10
2023-03-05T05:11:38.381Z,0.10
2023-03-05T05:14:06.179Z,0.00
2023-03-05T05:16:35.338Z,0.00
2023-03-05T05:19:03.792Z,0.00
2023-03-05T05:21:31.643Z,-0.10
2023-03-05T05:23:59.393Z,0.00
2023-03-05T05:26:27.713Z,0.20
2023-03-05T05:28:55.495Z,0.10
2023-03-05T05:31:23.497Z,0.20
2023-03-05T05:33:52.626Z,0.20
2023-03-05T05:36:22.285Z,0.20
2023-03-05T05:38:50.693Z,0.30
2023-03-05T05:41:19.863Z,0.20
2023-03-05T05:43:47.859Z,0.20
2023-03-05T05:46:18.517Z,0.20
2023-03-05T05:48:46.984Z,0.20
2023-03-05T05:51:18.324Z,0.10
2023-03-05T05:53:46.339Z,0.20
2023-03-05T05:56:16.437Z,0.20
2023-03-05T05:58:47.085Z,0.30
2023-03-05T06:01:17.240Z,0.30
2023-03-05T06:03:45.316Z,0.30
2023-03-05T06:06:15.188Z,0.30
2023-03-05T06:08:44.562Z,0.30
2023-03-05T06:11:12.767Z,0.40
2023-03-05T06:13:40.820Z,0.30
2023-03-05T06:16:12.706Z,0.20
2023-03-05T06:18:40.477Z,0.20
2023-03-05T06:21:10.257Z,0.20
2023-03-05T06:23:38.052Z,0.10
2023-03-05T06:26:09.222Z,0.10
2023-03-05T06:28:37.114Z,0.10
2023-03-05T06:31:06.651Z,0.20
2023-03-05T06:33:37.027Z,0.20
2023-03-05T06:36:05.663Z,0.40
2023-03-05T06:38:34.029Z,0.40
2023-03-05T06:41:02.683Z,0.50
2023-03-05T06:43:33.324Z,0.60
2023-03-05T06:46:05.149Z,0.60
2023-03-05T06:48:33.346Z,0.50
2023-03-05T06:51:01.156Z,0.50
2023-03-05T06:53:29.368Z,0.70
2023-03-05T06:55:57.181Z,0.60
2023-03-05T06:58:26.021Z,0.60
2023-03-05T07:00:55.153Z,0.60
2023-03-05T07:03:22.922Z,0.80
2023-03-05T07:05:50.736Z,0.90
2023-03-05T07:08:18.667Z,1.00
2023-03-05T07:10:46.461Z,1.00
2023-03-05T07:13:14.232Z,1.10
2023-03-05T07:15:42.743Z,1.20
2023-03-05T07:18:11.906Z,1.20
2023-03-05T07:20:39.724Z,1.30
2023-03-05T07:23:07.549Z,1.40
2023-03-05T07:25:37.250Z,1.60
2023-03-05T07:28:06.369Z,1.60
2023-03-05T07:30:34.317Z,1.60
2023-03-05T07:33:02.643Z,1.70
2023-03-05T07:35:31.768Z,1.70
2023-03-05T07:37:59.634Z,1.50
2023-03-05T07:40:27.412Z,1.60
2023-03-05T07:42:55.243Z,1.60
2023-03-05T07:45:22.998Z,1.70
2023-03-05T07:47:52.555Z,1.70
2023-03-05T07:50:20.671Z,1.70
2023-03-05T07:52:49.796Z,1.70
2023-03-05T07:55:17.765Z,1.70
2023-03-05T07:57:45.594Z,1.80
2023-03-05T08:00:14.404Z,1.80
2023-03-05T08:02:42.326Z,1.70
2023-03-05T08:05:10.578Z,1.90
2023-03-05T08:07:38.459Z,2.00
2023-03-05T08:10:09.558Z,2.00
2023-03-05T08:12:37.382Z,2.10
2023-03-05T08:15:05.701Z,2.20
2023-03-05T08:17:33.447Z,2.20
2023-03-05T08:20:05.362Z,2.30
2023-03-05T08:22:34.839Z,2.30
2023-03-05T08:25:02.944Z,2.30
2023-03-05T08:27:32.225Z,2.40
2023-03-05T08:30:01.994Z,2.40
2023-03-05T08:32:29.907Z,2.50
2023-03-05T08:34:58.471Z,2.60
2023-03-05T08:37:26.471Z,2.70
2023-03-05T08:39:56.147Z,2.70
2023-03-05T08:42:24.485Z,2.80
2023-03-05T08:44:53.674Z,2.80
2023-03-05T08:47:21.443Z,2.90
2023-03-05T08:49:49.268Z,3.00
2023-03-05T08:52:17.001Z,3.10
2023-03-05T08:54:44.756Z,3.20
2023-03-05T08:57:12.495Z,3.20
2023-03-05T08:59:40.365Z,3.10
2023-03-05T09:02:11.357Z,3.30
2023-03-05T09:04:39.589Z,3.30
2023-03-05T09:07:07.609Z,3.40
2023-03-05T09:09:35.447Z,3.50
2023-03-05T09:12:03.478Z,3.50
2023-03-05T09:14:31.342Z,3.60
2023-03-05T09:16:59.556Z,3.60
2023-03-05T09:19:29.007Z,3.70
2023-03-05T09:21:57.294Z,3.70
2023-03-05T09:24:25.065Z,3.60
2023-03-05T09:26:52.822Z,3.70
2023-03-05T09:29:20.663Z,3.80
2023-03-05T09:31:52.812Z,3.90
2023-03-05T09:34:21.354Z,3.90
2023-03-05T09:36:50.605Z,3.90
2023-03-05T09:39:18.773Z,4.00
2023-03-05T09:42:28.860Z,4.10
2023-03-05T09:45:13.895Z,4.20
2023-03-05T09:47:54.246Z,4.20
2023-03-05T09:50:35.780Z,4.30
2023-03-05T09:53:14.150Z,4.40
2023-03-05T09:55:45.356Z,4.40
2023-03-05T09:58:15.798Z,4.50
2023-03-05T10:00:46.901Z,4.50
2023-03-05T10:03:21.053Z,4.50
2023-03-05T10:05:59.542Z,4.60
2023-03-05T10:08:34.156Z,4.70
2023-03-05T10:11:06.935Z,4.80
2023-03-05T10:13:40.901Z,4.70
2023-03-05T10:16:32.352Z,4.70
2023-03-05T10:19:07.339Z,4.70
2023-03-05T10:21:41.335Z,4.80
2023-03-05T10:24:17.941Z,5.00
2023-03-05T10:26:58.499Z,4.90
2023-03-05T10:29:51.575Z,4.80
2023-03-05T10:32:33.193Z,4.80
2023-03-05T10:35:25.461Z,4.80
2023-03-05T10:38:05.049Z,5.00
2023-03-05T10:40:39.852Z,5.10
2023-03-05T10:43:20.022Z,5.20
2023-03-05T10:45:50.681Z,5.30
2023-03-05T10:48:29.448Z,5.40
2023-03-05T10:51:01.903Z,5.50
2023-03-05T10:53:33.989Z,5.50
2023-03-05T10:56:04.870Z,5.60
2023-03-05T10:58:32.823Z,5.70
2023-03-05T11:03:49.794Z,5.80
2023-03-05T11:06:29.777Z,5.90
2023-03-05T11:08:58.154Z,6.00
2023-03-05T11:11:28.699Z,5.90
2023-03-05T11:13:59.413Z,5.90
2023-03-05T11:16:29.457Z,6.10
2023-03-05T11:19:18.610Z,6.20
2023-03-05T11:21:48.155Z,6.40
2023-03-05T11:24:18.232Z,6.50
2023-03-05T11:26:51.960Z,6.70
2023-03-05T11:29:25.489Z,6.90
2023-03-05T11:31:54.029Z,7.20
2023-03-05T11:34:35.289Z,7.40
2023-03-05T11:37:06.416Z,7.50
2023-03-05T11:39:38.353Z,7.50
2023-03-05T11:42:11.487Z,7.60
2023-03-05T11:44:46.270Z,7.60
2023-03-05T11:47:23.903Z,7.80
2023-03-05T11:49:56.126Z,7.70
2023-03-05T11:52:27.048Z,7.90
2023-03-05T11:55:01.611Z,8.20
2023-03-05T11:57:39.726Z,8.40
2023-03-05T12:00:14.257Z,8.40
2023-03-05T12:02:42.864Z,8.30
2023-03-05T12:05:15.824Z,8.50
2023-03-05T12:07:48.378Z,8.70
2023-03-05T12:10:18.301Z,8.90
2023-03-05T12:12:53.912Z,8.80
2023-03-05T12:15:47.914Z,9.00
2023-03-05T12:18:39.081Z,8.80
2023-03-05T12:21:09.192Z,8.60
2023-03-05T12:23:48.080Z,8.40
2023-03-05T12:26:16.194Z,8.30
2023-03-05T12:28:58.993Z,8.10
2023-03-05T12:31:39.592Z,8.10
2023-03-05T12:34:44.183Z,8.10
2023-03-05T12:37:12.846Z,8.10
2023-03-05T12:39:52.513Z,8.20
2023-03-05T12:42:46.152Z,8.10
2023-03-05T12:45:45.861Z,7.90
2023-03-05T12:48:42.919Z,7.80
2023-03-05T12:51:15.288Z,8.00
2023-03-05T12:53:43.081Z,8.20
2023-03-05T12:56:20.859Z,8.10
2023-03-05T12:58:51.623Z,8.00
2023-03-05T13:01:35.157Z,8.00
2023-03-05T13:04:10.667Z,8.00
2023-03-05T13:06:40.180Z,7.90
2023-03-05T13:09:16.547Z,7.80
2023-03-05T13:11:47.620Z,7.80
2023-03-05T13:16:57.251Z,7.90
2023-03-05T13:19:25.578Z,8.00
2023-03-05T13:22:00.581Z,8.10
2023-03-05T13:24:29.147Z,8.20
2023-03-05T13:26:57.783Z,8.20
2023-03-05T13:29:28.139Z,8.30
2023-03-05T13:31:59.641Z,8.30
2023-03-05T13:34:40.775Z,8.10
2023-03-05T13:37:18.845Z,8.10
2023-03-05T13:39:51.007Z,8.00
2023-03-05T13:42:20.940Z,8.00
2023-03-05T13:44:55.667Z,8.00
2023-03-05T13:47:28.376Z,8.00
2023-03-05T13:50:00.420Z,7.90
2023-03-05T13:52:30.755Z,7.80
2023-03-05T13:54:59.574Z,7.70
2023-03-05T13:57:39.229Z,7.70
2023-03-05T14:00:25.019Z,7.70
2023-03-05T14:02:57.556Z,7.70
2023-03-05T14:05:26.636Z,7.80
2023-03-05T14:07:54.793Z,7.90
2023-03-05T14:10:31.337Z,8.00
2023-03-05T14:13:00.499Z,7.90
2023-03-05T14:15:30.910Z,7.90
2023-03-05T14:18:20.634Z,7.90
2023-03-05T14:21:03.929Z,7.90
2023-03-05T14:23:37.739Z,7.90
2023-03-05T14:26:29.467Z,7.90
2023-03-05T14:29:00.254Z,8.00
2023-03-05T14:31:30.629Z,8.00
2023-03-05T14:34:05.228Z,7.90
2023-03-05T14:36:34.559Z,7.90
2023-03-05T14:39:02.443Z,7.90
2023-03-05T14:41:37.911Z,7.80
2023-03-05T14:44:13.309Z,7.90
2023-03-05T14:46:41.563Z,7.90
2023-03-05T14:49:10.953Z,7.90
2023-03-05T14:51:41.826Z,7.80
2023-03-05T14:54:20.593Z,7.70
2023-03-05T14:56:49.593Z,7.70
2023-03-05T14:59:18.098Z,7.60
2023-03-05T15:01:46.054Z,7.60
2023-03-05T15:04:18.967Z,7.50
2023-03-05T15:06:50.576Z,7.50
2023-03-05T15:09:20.930Z,7.60
2023-03-05T15:11:50.107Z,7.50
2023-03-05T15:14:17.981Z,7.40
2023-03-05T15:16:47.772Z,7.40
2023-03-05T15:19:16.948Z,7.40
2023-03-05T15:21:44.809Z,7.50
2023-03-05T15:24:14.711Z,7.50
2023-03-05T15:26:42.501Z,7.50
2023-03-05T15:29:10.259Z,7.40
2023-03-05T15:31:40.347Z,7.40
2023-03-05T15:34:08.225Z,7.50
2023-03-05T15:36:37.338Z,7.50
2023-03-05T15:39:05.122Z,7.50
2023-03-05T15:41:32.907Z,7.40
2023-03-05T15:44:00.653Z,7.30
2023-03-05T15:46:28.590Z,7.30
2023-03-05T15:48:56.405Z,7.30
2023-03-05T15:51:24.166Z,7.20
2023-03-05T15:53:54.414Z,7.20
2023-03-05T15:56:22.209Z,7.20
2023-03-05T15:58:50.149Z,7.10
2023-03-05T16:01:19.302Z,7.10
2023-03-05T16:03:47.370Z,7.20
2023-03-05T16:06:16.518Z,7.10
2023-03-05T16:08:45.237Z,7.10
2023-03-05T16:11:14.617Z,7.00
2023-03-05T16:13:42.985Z,7.00
2023-03-05T16:16:11.480Z,7.00
2023-03-05T16:18:43.484Z,7.00
2023-03-05T16:21:12.026Z,6.90
2023-03-05T16:23:39.796Z,6.80
2023-03-05T16:26:10.236Z,6.80
2023-03-05T16:28:39.417Z,6.70
2023-03-05T16:31:07.329Z,6.70
2023-03-05T16:33:35.207Z,6.70
2023-03-05T16:36:24.633Z,6.60
2023-03-05T16:38:54.315Z,6.60
2023-03-05T16:41:24.401Z,6.60
2023-03-05T16:43:56.267Z,6.60
2023-03-05T16:46:25.365Z,6.60
2023-03-05T16:48:53.895Z,6.50
2023-03-05T16:51:22.546Z,6.40
2023-03-05T16:53:50.680Z,6.30
2023-03-05T16:56:19.162Z,6.30
2023-03-05T16:58:47.109Z,6.20
2023-03-05T17:01:18.860Z,6.30
2023-03-05T17:03:46.734Z,6.20
2023-03-05T17:06:17.034Z,6.10
2023-03-05T17:08:46.039Z,6.10
2023-03-05T17:11:14.550Z,6.10
2023-03-05T17:13:42.785Z,6.10
2023-03-05T17:16:12.673Z,6.00
2023-03-05T17:18:41.863Z,6.20
2023-03-05T17:21:10.462Z,6.10
2023-03-05T17:23:39.911Z,6.00
2023-03-05T17:26:08.814Z,5.90
2023-03-05T17:28:37.014Z,5.80
2023-03-05T17:31:04.915Z,5.80
2023-03-05T17:33:33.173Z,5.70
2023-03-05T17:36:03.140Z,5.70
2023-03-05T17:38:31.641Z,5.60
2023-03-05T17:40:59.500Z,5.60
2023-03-05T17:43:27.417Z,5.60
2023-03-05T17:45:59.520Z,5.60
2023-03-05T17:48:27.564Z,5.50
2023-03-05T17:50:55.910Z,5.50
2023-03-05T17:53:25.086Z,5.40
2023-03-05T17:55:53.200Z,5.30
2023-03-05T17:58:21.015Z,5.30
2023-03-05T18:00:48.902Z,5.20
2023-03-05T18:03:16.750Z,5.20
2023-03-05T18:05:44.666Z,5.10
2023-03-05T18:08:12.958Z,5.00
2023-03-05T18:10:42.121Z,5.10
2023-03-05T18:13:09.953Z,5.10
2023-03-05T18:15:41.702Z,4.90
2023-03-05T18:18:09.525Z,4.80
2023-03-05T18:20:38.144Z,4.60
2023-03-05T18:23:06.960Z,4.50
2023-03-05T18:25:35.460Z,4.50
2023-03-05T18:28:06.852Z,4.40
2023-03-05T18:30:35.159Z,4.40
2023-03-05T18:33:03.348Z,4.30
2023-03-05T18:35:32.140Z,4.30
2023-03-05T18:38:01.006Z,4.30
2023-03-05T18:40:32.434Z,4.30
2023-03-05T18:43:01.493Z,4.10
2023-03-05T18:45:32.338Z,3.80
2023-03-05T18:48:00.164Z,3.90
2023-03-05T18:50:29.704Z,3.70
2023-03-05T18:52:57.540Z,3.60
2023-03-05T18:55:27.695Z,3.50
2023-03-05T18:57:56.114Z,3.50
2023-03-05T19:00:26.305Z,3.40
2023-03-05T19:02:56.508Z,3.20
2023-03-05T19:05:26.004Z,3.30
2023-03-05T19:07:54.864Z,3.10
2023-03-05T19:10:23.586Z,3.00
2023-03-05T19:12:57.586Z,2.90
2023-03-05T19:15:25.428Z,3.00
2023-03-05T19:17:54.780Z,2.90
2023-03-05T19:20:23.958Z,2.90
2023-03-05T19:22:51.785Z,2.90
2023-03-05T19:25:19.736Z,3.00
2023-03-05T19:27:47.549Z,3.00
2023-03-05T19:30:16.413Z,2.90
2023-03-05T19:32:47.036Z,2.80
2023-03-05T19:35:16.775Z,2.90
2023-03-05T19:37:46.112Z,2.90
2023-03-05T19:40:14.967Z,2.90
2023-03-05T19:42:42.779Z,2.90
2023-03-05T19:45:11.372Z,2.90
2023-03-05T19:47:39.258Z,3.00
2023-03-05T19:50:08.193Z,3.00
2023-03-05T19:52:35.973Z,3.00
2023-03-05T19:55:05.731Z,3.10
2023-03-05T19:57:33.660Z,3.10
2023-03-05T20:00:01.554Z,3.00
2023-03-05T20:02:29.731Z,3.10
2023-03-05T20:04:57.570Z,3.20
2023-03-05T20:07:25.381Z,3.20
2023-03-05T20:09:55.388Z,3.20
2023-03-05T20:12:24.758Z,3.30
2023-03-05T20:14:52.517Z,3.30
2023-03-05T20:17:20.590Z,3.30
2023-03-05T20:19:48.374Z,3.30
2023-03-05T20:22:16.190Z,3.40
2023-03-05T20:24:44.029Z,3.40
2023-03-05T20:27:11.834Z,3.40
2023-03-05T20:29:40.958Z,3.30
2023-03-05T20:32:08.840Z,3.30
2023-03-05T20:34:36.646Z,3.20
2023-03-05T20:37:04.999Z,3.30
2023-03-05T20:39:32.876Z,3.30
2023-03-05T20:42:00.910Z,3.40
2023-03-05T20:44:28.694Z,3.40
2023-03-05T20:47:12.474Z,3.30
2023-03-05T20:49:40.298Z,3.20
2023-03-05T20:52:08.090Z,3.30
2023-03-05T20:54:36.302Z,3.30
2023-03-05T20:57:04.109Z,3.40
2023-03-05T20:59:31.899Z,3.40
2023-03-05T21:02:01.072Z,3.30
2023-03-05T21:04:28.946Z,3.40
2023-03-05T21:06:56.733Z,3.50
2023-03-05T21:09:24.566Z,3.50
2023-03-05T21:11:52.384Z,3.50
2023-03-05T21:14:20.169Z,3.40
2023-03-05T21:16:47.975Z,3.40
2023-03-05T21:19:17.257Z,3.30
2023-03-05T21:21:45.756Z,3.30
2023-03-05T21:24:13.931Z,3.30
2023-03-05T21:26:41.731Z,3.30
2023-03-05T21:29:09.504Z,3.30
2023-03-05T21:31:37.771Z,3.30
2023-03-05T21:34:05.572Z,3.20
2023-03-05T21:36:35.050Z,3.30
2023-03-05T21:39:02.853Z,3.20
2023-03-05T21:41:31.085Z,3.30
2023-03-05T21:44:03.878Z,3.40
2023-03-05T21:46:31.719Z,3.30
2023-03-05T21:48:59.509Z,3.30
2023-03-05T21:51:38.296Z,3.20
2023-03-05T21:54:08.909Z,3.20
2023-03-05T21:56:36.808Z,3.20
2023-03-05T21:59:04.631Z,3.20
2023-03-05T22:01:32.503Z,3.30
2023-03-05T22:04:00.495Z,3.40
2023-03-05T22:06:28.394Z,3.30
2023-03-05T22:08:56.156Z,3.40
2023-03-05T22:11:25.272Z,3.50
2023-03-05T22:13:53.095Z,3.40
2023-03-05T22:16:25.676Z,3.40
2023-03-05T22:18:54.407Z,3.40
2023-03-05T22:21:25.691Z,3.40
2023-03-05T22:23:54.260Z,3.40
2023-03-05T22:26:22.089Z,3.50
2023-03-05T22:28:51.304Z,3.40
2023-03-05T22:31:22.758Z,3.30
2023-03-05T22:33:50.694Z,3.30
2023-03-05T22:36:19.308Z,3.20
2023-03-05T22:38:47.498Z,3.20
2023-03-05T22:41:19.585Z,3.10
2023-03-05T22:43:48.251Z,3.20
2023-03-05T22:46:19.374Z,3.20
2023-03-05T22:48:47.624Z,3.20
2023-03-05T22:51:16.893Z,3.20
2023-03-05T22:53:45.037Z,3.20
2023-03-05T22:56:15.061Z,3.30
2023-03-05T22:58:43.159Z,3.30
2023-03-05T23:01:14.543Z,3.30
2023-03-05T23:03:44.168Z,3.30
2023-03-05T23:06:12.001Z,3.20
2023-03-05T23:08:39.814Z,3.30
2023-03-05T23:11:12.258Z,3.30
2023-03-05T23:13:40.550Z,3.30
2023-03-05T23:16:09.372Z,3.30
2023-03-05T23:18:37.330Z,3.20
2023-03-05T23:21:06.745Z,3.30
2023-03-05T23:23:34.627Z,3.20
2023-03-05T23:26:02.833Z,3.20
2023-03-05T23:28:30.697Z,3.30
2023-03-05T23:30:59.004Z,3.30
2023-03-05T23:33:27.910Z,3.30
2023-03-05T23:35:58.206Z,3.30
2023-03-05T23:38:29.257Z,3.30
2023-03-05T23:41:01.051Z,3.20
2023-03-05T23:43:29.519Z,3.30
2023-03-05T23:45:58.157Z,3.30
2023-03-05T23:48:27.393Z,3.40
2023-03-05T23:50:55.740Z,3.40
2023-03-05T23:53:25.857Z,3.30
2023-03-05T23:55:55.335Z,3.30
2023-03-05T23:58:23.829Z,3.20
